Time;durP1;ratioP1;P1;durP2;ratioP2;P2;SDS_P1;SDS_P2;PMS_P1;PMS_P2;Temp;Humidity;BMP_temperature;BMP_pressure;BME280_temperature;BME280_humidity;BME280_pressure;Samples;Min_cycle;Max_cycle;Signal;HPM_P1;HPM_P2
2022/11/06 00:01:55;;;;;;;13.67;9.00;;;8.10;99.90;;;;;;5096641;28;20637;-69
2022/11/06 00:04:21;;;;;;;12.93;9.27;;;8.10;99.90;;;;;;5097269;28;20184;-68
2022/11/06 00:06:47;;;;;;;12.77;8.83;;;8.20;99.90;;;;;;5096526;28;20189;-68
2022/11/06 00:09:14;;;;;;;15.17;8.83;;;8.20;99.90;;;;;;5096614;28;20203;-69
2022/11/06 00:11:41;;;;;;;14.17;8.90;;;8.20;99.90;;;;;;5093372;28;20564;-68
2022/11/06 00:14:07;;;;;;;11.27;8.00;;;8.30;99.90;;;;;;5074893;28;20173;-69
2022/11/06 00:16:35;;;;;;;12.23;7.60;;;8.30;99.90;;;;;;5074913;28;20248;-69
2022/11/06 00:19:01;;;;;;;13.90;7.87;;;8.30;99.90;;;;;;5076155;28;20228;-69
2022/11/06 00:21:29;;;;;;;10.43;8.20;;;8.30;99.90;;;;;;5076332;28;20235;-68
2022/11/06 00:23:57;;;;;;;14.17;7.73;;;8.40;99.90;;;;;;5076351;28;20256;-69
2022/11/06 00:26:24;;;;;;;12.10;8.03;;;8.40;99.90;;;;;;5075999;28;20655;-69
2022/11/06 00:28:51;;;;;;;15.77;7.50;;;8.40;99.90;;;;;;5074803;28;20182;-68
2022/11/06 00:31:20;;;;;;;10.50;7.27;;;8.40;99.90;;;;;;5076093;28;20189;-69
2022/11/06 00:33:46;;;;;;;11.43;7.30;;;8.40;99.90;;;;;;5075889;28;20170;-69
2022/11/06 00:36:14;;;;;;;11.30;7.30;;;8.40;99.90;;;;;;5078046;28;20196;-68
2022/11/06 00:38:40;;;;;;;9.87;6.93;;;8.40;99.90;;;;;;5078482;28;20564;-69
2022/11/06 00:41:09;;;;;;;12.03;7.47;;;8.50;99.90;;;;;;5078371;28;20182;-69
2022/11/06 00:43:35;;;;;;;11.03;6.67;;;8.50;99.90;;;;;;5093996;28;20219;-68
2022/11/06 00:46:06;;;;;;;12.90;7.20;;;8.50;99.90;;;;;;5094802;28;20628;-68
2022/11/06 00:48:35;;;;;;;12.13;6.73;;;8.50;99.90;;;;;;5096221;28;20163;-68
2022/11/06 00:51:06;;;;;;;8.67;6.70;;;8.50;99.90;;;;;;5095949;28;20200;-68
2022/11/06 00:53:32;;;;;;;9.50;7.37;;;8.50;99.90;;;;;;5095833;28;20178;-68
2022/11/06 00:56:11;;;;;;;15.40;6.77;;;8.50;99.90;;;;;;5095794;28;20196;-69
2022/11/06 00:58:38;;;;;;;11.40;6.80;;;8.50;99.90;;;;;;5094506;28;20176;-68
2022/11/06 01:01:19;;;;;;;11.03;6.53;;;8.50;99.90;;;;;;5094699;28;20165;-69
2022/11/06 01:03:46;;;;;;;9.80;6.97;;;8.50;99.90;;;;;;5096452;28;20180;-68
2022/11/06 01:06:18;;;;;;;10.20;6.67;;;8.50;99.90;;;;;;5094265;28;20193;-69
2022/11/06 01:08:45;;;;;;;10.13;6.50;;;8.50;99.90;;;;;;5093778;28;20177;-68
2022/11/06 01:11:15;;;;;;;14.00;6.90;;;8.50;99.90;;;;;;5095269;28;20224;-72
2022/11/06 01:13:42;;;;;;;8.53;6.47;;;8.50;99.90;;;;;;5095287;28;20177;-68
2022/11/06 01:16:10;;;;;;;9.57;7.23;;;8.50;99.90;;;;;;5095458;28;20200;-68
2022/11/06 01:18:37;;;;;;;14.63;7.30;;;8.50;99.90;;;;;;5095415;28;20252;-69
2022/11/06 01:21:08;;;;;;;7.87;6.47;;;8.40;99.90;;;;;;5095293;28;20201;-69
2022/11/06 01:23:34;;;;;;;13.07;6.40;;;8.40;99.90;;;;;;5095330;28;20185;-68
2022/11/06 01:26:04;;;;;;;11.50;7.03;;;8.30;99.90;;;;;;5095345;28;20228;-68
2022/11/06 01:28:31;;;;;;;9.50;6.57;;;8.30;99.90;;;;;;5095126;28;20181;-69
2022/11/06 01:31:05;;;;;;;9.70;6.40;;;8.30;99.90;;;;;;5093669;28;20211;-68
2022/11/06 01:33:31;;;;;;;10.77;7.07;;;8.20;99.90;;;;;;5095336;28;20199;-68
2022/11/06 01:35:56;;;;;;;8.33;6.60;;;8.20;99.90;;;;;;5094982;28;20217;-68
2022/11/06 01:38:22;;;;;;;8.77;6.30;;;8.20;99.90;;;;;;5094943;28;20657;-68
2022/11/06 01:40:48;;;;;;;13.23;6.60;;;8.10;99.90;;;;;;5094862;28;20736;-69
2022/11/06 01:43:19;;;;;;;11.67;6.50;;;8.10;99.90;;;;;;5094870;28;20230;-69
2022/11/06 01:45:48;;;;;;;8.60;6.43;;;8.10;99.90;;;;;;5095295;28;20232;-68
2022/11/06 01:48:15;;;;;;;7.77;5.70;;;8.10;99.90;;;;;;5093582;28;20181;-69
2022/11/06 01:50:46;;;;;;;8.90;6.00;;;8.10;99.90;;;;;;5093332;28;20173;-68
2022/11/06 01:53:13;;;;;;;8.67;6.23;;;8.10;99.90;;;;;;5094671;28;20622;-69
2022/11/06 01:55:43;;;;;;;13.20;6.20;;;8.10;99.90;;;;;;5094518;28;20199;-69
2022/11/06 01:58:12;;;;;;;11.63;5.90;;;8.10;99.90;;;;;;5094489;28;20184;-69
2022/11/06 02:00:38;;;;;;;11.80;6.00;;;8.10;99.90;;;;;;5094605;28;20169;-69
2022/11/06 02:03:05;;;;;;;8.17;5.57;;;8.10;99.90;;;;;;5094531;28;20167;-69
2022/11/06 02:05:31;;;;;;;10.83;5.70;;;8.10;99.90;;;;;;5094518;28;20554;-68
2022/11/06 02:07:58;;;;;;;7.70;5.67;;;8.10;99.90;;;;;;5092971;28;20177;-68
2022/11/06 02:10:24;;;;;;;9.60;6.20;;;8.10;99.90;;;;;;5093103;28;20173;-68
2022/11/06 02:12:49;;;;;;;7.90;5.83;;;8.10;99.90;;;;;;5094952;28;20277;-69
2022/11/06 02:15:26;;;;;;;10.60;5.97;;;8.10;99.90;;;;;;5093308;28;20169;-69
2022/11/06 02:18:10;;;;;;;12.80;6.00;;;8.10;99.90;;;;;;5094390;28;20218;-68
2022/11/06 02:21:01;;;;;;;8.63;5.90;;;8.10;99.90;;;;;;5093847;28;20382;-69
2022/11/06 02:23:57;;;;;;;10.47;5.57;;;8.00;99.90;;;;;;5081996;28;20191;-69
2022/11/06 02:26:52;;;;;;;10.13;5.97;;;8.10;99.90;;;;;;5094124;28;20658;-69
2022/11/06 02:29:30;;;;;;;8.17;5.63;;;8.10;99.90;;;;;;5093211;28;20207;-69
2022/11/06 02:32:03;;;;;;;9.47;5.90;;;8.10;99.90;;;;;;5093973;28;20221;-69
2022/11/06 02:34:29;;;;;;;12.37;6.73;;;8.00;99.90;;;;;;5094077;28;20159;-69
2022/11/06 02:37:06;;;;;;;11.17;6.03;;;8.00;99.90;;;;;;5093846;28;20223;-69
2022/11/06 02:39:35;;;;;;;11.70;6.93;;;8.00;99.90;;;;;;5092600;28;20655;-69
2022/11/06 02:42:04;;;;;;;11.53;5.80;;;8.00;99.90;;;;;;5093788;28;20757;-69
2022/11/06 02:44:31;;;;;;;10.23;5.43;;;8.00;99.90;;;;;;5093789;28;20201;-69
2022/11/06 02:47:04;;;;;;;6.87;5.60;;;8.00;99.90;;;;;;5092442;28;20205;-69
2022/11/06 02:49:52;;;;;;;12.97;6.10;;;8.00;99.90;;;;;;5092517;28;20174;-68
2022/11/06 02:52:22;;;;;;;10.17;6.30;;;8.00;99.90;;;;;;5093745;28;20184;-69
2022/11/06 02:55:01;;;;;;;10.30;6.17;;;8.00;99.90;;;;;;5094108;28;20204;-69
2022/11/06 02:57:30;;;;;;;8.80;5.93;;;8.00;99.90;;;;;;5092322;28;20250;-68
2022/11/06 03:00:01;;;;;;;13.93;6.10;;;8.00;99.90;;;;;;5093515;28;20184;-68
2022/11/06 03:02:32;;;;;;;9.43;5.93;;;8.00;99.90;;;;;;5093581;28;20253;-68
2022/11/06 03:05:36;;;;;;;10.77;5.87;;;8.00;99.90;;;;;;5093872;28;20161;-69
2022/11/06 03:08:16;;;;;;;8.87;5.60;;;8.00;99.90;;;;;;5092319;28;20691;-69
2022/11/06 03:10:54;;;;;;;10.83;5.83;;;8.00;99.90;;;;;;5093559;28;20617;-68
2022/11/06 03:13:26;;;;;;;10.33;5.87;;;8.00;99.90;;;;;;5092252;28;20528;-69
2022/11/06 03:16:04;;;;;;;13.50;6.57;;;7.90;99.90;;;;;;5092157;28;20197;-69
2022/11/06 03:18:46;;;;;;;9.97;6.20;;;8.00;99.90;;;;;;5094283;28;20225;-69
2022/11/06 03:21:24;;;;;;;9.33;6.00;;;7.90;99.90;;;;;;5094436;28;20165;-69
2022/11/06 03:23:56;;;;;;;13.63;6.47;;;7.90;99.90;;;;;;5093661;28;20638;-69
2022/11/06 03:26:42;;;;;;;8.37;5.57;;;7.90;99.90;;;;;;5093639;28;20189;-69
2022/11/06 03:29:13;;;;;;;11.93;5.87;;;7.90;99.90;;;;;;5093689;28;20240;-68
2022/11/06 03:31:52;;;;;;;9.27;5.80;;;8.00;99.90;;;;;;5096926;28;20212;-69
2022/11/06 03:34:31;;;;;;;17.57;6.10;;;8.00;99.90;;;;;;5097788;28;20210;-68
2022/11/06 03:37:10;;;;;;;9.73;5.33;;;8.00;99.90;;;;;;5097242;28;20231;-68
2022/11/06 03:39:41;;;;;;;7.67;5.90;;;8.00;99.90;;;;;;5095985;28;20176;-69
2022/11/06 03:42:12;;;;;;;8.60;5.83;;;8.00;99.90;;;;;;5097021;28;20267;-68
2022/11/06 03:44:45;;;;;;;12.43;6.27;;;8.00;99.90;;;;;;5097315;28;20204;-69
2022/11/06 03:47:27;;;;;;;9.10;5.30;;;8.00;99.90;;;;;;5097054;28;20686;-68
2022/11/06 03:50:19;;;;;;;7.37;5.90;;;8.00;99.90;;;;;;5097155;28;20611;-68
2022/11/06 03:53:07;;;;;;;9.57;5.90;;;7.90;99.90;;;;;;5095587;28;20225;-68
2022/11/06 03:55:58;;;;;;;10.87;5.23;;;7.90;99.90;;;;;;5097054;28;20532;-68
2022/11/06 03:58:34;;;;;;;8.00;5.70;;;8.00;99.90;;;;;;5096999;28;20162;-69
2022/11/06 04:01:03;;;;;;;9.07;5.63;;;8.00;99.90;;;;;;5097204;28;20161;-69
2022/11/06 04:03:34;;;;;;;9.20;5.27;;;8.00;99.90;;;;;;5096886;28;20180;-69
2022/11/06 04:06:11;;;;;;;11.87;5.90;;;7.90;99.90;;;;;;5096807;28;20197;-68
2022/11/06 04:14:14;;;;;;;7.70;4.87;;;8.00;99.90;;;;;;5096911;28;20165;-69
2022/11/06 04:16:48;;;;;;;8.40;5.47;;;8.00;99.90;;;;;;5096370;28;20212;-68
2022/11/06 04:19:20;;;;;;;5.13;4.63;;;8.00;99.90;;;;;;5097094;28;20162;-69
2022/11/06 04:21:46;;;;;;;11.97;5.67;;;7.90;99.90;;;;;;5095126;28;20219;-68
2022/11/06 04:27:34;;;;;;;9.37;5.33;;;7.90;99.90;;;;;;5096427;28;20208;-69
2022/11/06 04:30:07;;;;;;;6.40;5.50;;;7.90;99.90;;;;;;5095992;28;20608;-69
2022/11/06 04:33:00;;;;;;;8.80;5.13;;;7.90;99.90;;;;;;5094952;28;20197;-69
2022/11/06 04:36:05;;;;;;;8.13;5.67;;;7.90;99.90;;;;;;5096362;28;20610;-69
2022/11/06 04:38:40;;;;;;;12.13;5.23;;;8.00;99.90;;;;;;5096011;28;20169;-68
2022/11/06 04:41:33;;;;;;;10.00;5.33;;;8.00;99.90;;;;;;5094727;28;20260;-68
2022/11/06 04:44:21;;;;;;;9.50;5.67;;;8.00;99.90;;;;;;5096013;28;20161;-69
2022/11/06 04:47:01;;;;;;;9.47;5.57;;;8.00;99.90;;;;;;5091251;28;20213;-68
2022/11/06 04:49:31;;;;;;;8.63;5.90;;;8.00;99.90;;;;;;5094698;28;20181;-68
2022/11/06 04:51:58;;;;;;;8.90;5.50;;;8.00;99.90;;;;;;5095896;28;20192;-68
2022/11/06 04:54:25;;;;;;;12.70;5.67;;;8.00;99.90;;;;;;5096207;28;20226;-69
2022/11/06 04:56:55;;;;;;;6.20;5.23;;;8.00;99.90;;;;;;5095879;28;20189;-69
2022/11/06 04:59:21;;;;;;;8.20;5.20;;;8.00;99.90;;;;;;5094450;28;20322;-69
2022/11/06 05:01:47;;;;;;;13.77;5.50;;;7.90;99.90;;;;;;5095630;28;20653;-69
2022/11/06 05:04:13;;;;;;;7.30;5.37;;;7.90;99.90;;;;;;5096036;28;20177;-69
2022/11/06 05:06:39;;;;;;;13.33;5.80;;;7.90;99.90;;;;;;5095450;28;20317;-69
2022/11/06 05:09:04;;;;;;;10.60;5.13;;;7.80;99.90;;;;;;5094103;28;20189;-69
2022/11/06 05:11:30;;;;;;;9.13;5.23;;;7.90;99.90;;;;;;5093993;28;20582;-68
2022/11/06 05:13:56;;;;;;;6.83;4.67;;;7.90;99.90;;;;;;5095992;28;20185;-69
2022/11/06 05:16:22;;;;;;;7.67;5.43;;;7.80;99.90;;;;;;5094046;28;20620;-69
2022/11/06 05:18:47;;;;;;;8.20;4.70;;;7.80;99.90;;;;;;5095626;28;20591;-69
2022/11/06 05:23:57;;;;;;;9.27;5.13;;;7.80;99.90;;;;;;5095307;28;20172;-69
2022/11/06 05:26:24;;;;;;;6.57;4.70;;;7.80;99.90;;;;;;5093858;28;20201;-69
2022/11/06 05:28:50;;;;;;;9.60;5.37;;;7.80;99.90;;;;;;5095153;28;20173;-69
2022/11/06 05:31:16;;;;;;;8.50;5.10;;;7.80;99.90;;;;;;5095020;28;20212;-69
2022/11/06 05:33:41;;;;;;;9.97;5.17;;;7.80;99.90;;;;;;5095061;28;20173;-68
2022/11/06 05:36:07;;;;;;;10.63;5.20;;;7.80;99.90;;;;;;5094997;28;20201;-69
2022/11/06 05:38:33;;;;;;;10.20;5.20;;;7.80;99.90;;;;;;5094976;28;20178;-69
2022/11/06 05:40:59;;;;;;;10.67;5.67;;;7.80;99.90;;;;;;5095297;28;20177;-69
2022/11/06 05:43:25;;;;;;;13.10;4.97;;;7.80;99.90;;;;;;5093599;28;20665;-69
2022/11/06 05:45:51;;;;;;;9.67;5.17;;;7.80;99.90;;;;;;5093523;28;20212;-69
2022/11/06 05:48:17;;;;;;;6.23;4.90;;;7.80;99.90;;;;;;5094746;28;20189;-69
2022/11/06 05:50:42;;;;;;;9.17;4.60;;;7.80;99.90;;;;;;5093377;28;20208;-69
2022/11/06 05:53:08;;;;;;;7.97;4.57;;;7.80;99.90;;;;;;5094425;28;20207;-69
2022/11/06 05:55:34;;;;;;;10.13;4.77;;;7.70;99.90;;;;;;5094438;28;20173;-69
2022/11/06 05:58:00;;;;;;;4.80;4.40;;;7.70;99.90;;;;;;5094757;28;20601;-69
2022/11/06 06:00:25;;;;;;;10.60;5.20;;;7.60;99.90;;;;;;5094635;28;20172;-69
2022/11/06 06:02:51;;;;;;;6.90;4.97;;;7.60;99.90;;;;;;5094661;28;20185;-69
2022/11/06 06:05:17;;;;;;;6.27;4.97;;;7.60;99.90;;;;;;5094527;28;20205;-69
2022/11/06 06:07:43;;;;;;;7.37;4.97;;;7.60;99.90;;;;;;5094412;28;20654;-69
2022/11/06 06:10:10;;;;;;;7.63;5.00;;;7.60;99.90;;;;;;5096215;28;20177;-69
2022/11/06 06:12:38;;;;;;;5.90;4.20;;;7.60;99.90;;;;;;5095334;28;20213;-69
2022/11/06 06:15:04;;;;;;;6.00;5.23;;;7.60;99.90;;;;;;5095038;28;20177;-69
2022/11/06 06:17:30;;;;;;;5.50;4.20;;;7.60;99.90;;;;;;5094383;28;20193;-69
2022/11/06 06:19:56;;;;;;;6.33;4.50;;;7.50;99.90;;;;;;5094284;28;20199;-69
2022/11/06 06:22:22;;;;;;;8.40;4.97;;;7.50;99.90;;;;;;5092888;28;20204;-69
2022/11/06 06:24:47;;;;;;;6.13;4.33;;;7.40;99.90;;;;;;5092845;28;20203;-69
2022/11/06 06:27:13;;;;;;;5.43;4.50;;;7.30;99.90;;;;;;5092591;28;20250;-69
2022/11/06 06:29:39;;;;;;;4.73;4.30;;;7.30;99.90;;;;;;5094004;28;20180;-69
2022/11/06 06:32:04;;;;;;;14.83;5.20;;;7.30;99.90;;;;;;5093917;28;20719;-69
2022/11/06 06:34:30;;;;;;;6.63;4.67;;;7.30;99.90;;;;;;5093873;28;20204;-69
2022/11/06 06:36:56;;;;;;;7.37;4.87;;;7.30;99.90;;;;;;5093949;28;20272;-66
2022/11/06 06:39:22;;;;;;;8.03;5.00;;;7.30;99.90;;;;;;5092607;28;20641;-69
2022/11/06 06:41:48;;;;;;;5.50;4.93;;;7.30;99.90;;;;;;5093777;28;20556;-69
2022/11/06 06:44:14;;;;;;;5.73;4.57;;;7.30;99.90;;;;;;5093987;28;20219;-68
2022/11/06 06:46:40;;;;;;;9.10;4.83;;;7.30;99.90;;;;;;5093669;28;20205;-69
2022/11/06 06:49:06;;;;;;;10.17;5.20;;;7.30;99.90;;;;;;5094025;28;20195;-69
2022/11/06 06:51:32;;;;;;;5.80;4.93;;;7.30;99.90;;;;;;5093944;28;20291;-69
2022/11/06 06:53:57;;;;;;;8.60;4.90;;;7.40;99.90;;;;;;5093555;28;20621;-69
2022/11/06 06:56:23;;;;;;;7.23;4.53;;;7.50;99.90;;;;;;5092239;28;20203;-69
2022/11/06 06:58:52;;;;;;;9.10;4.57;;;7.60;99.90;;;;;;5092228;28;20181;-69
2022/11/06 07:01:18;;;;;;;8.17;4.37;;;7.60;99.90;;;;;;5094038;28;20658;-69
2022/11/06 07:03:44;;;;;;;7.50;4.67;;;7.60;99.90;;;;;;5093793;28;20209;-69
2022/11/06 07:06:10;;;;;;;7.03;4.63;;;7.60;99.90;;;;;;5091677;28;20201;-69
2022/11/06 07:08:36;;;;;;;4.73;4.20;;;7.60;99.90;;;;;;5092089;28;20181;-69
2022/11/06 07:11:04;;;;;;;8.83;4.47;;;7.60;99.90;;;;;;5093869;28;20270;-69
2022/11/06 07:13:30;;;;;;;8.47;4.87;;;7.60;99.90;;;;;;5092076;28;20181;-69
2022/11/06 07:15:56;;;;;;;7.87;4.57;;;7.70;99.90;;;;;;5092007;28;20204;-69
2022/11/06 07:18:22;;;;;;;8.60;4.77;;;7.70;99.90;;;;;;5093357;28;20173;-69
2022/11/06 07:20:48;;;;;;;7.07;4.43;;;7.80;99.90;;;;;;5092211;28;20256;-69
2022/11/06 07:23:14;;;;;;;6.03;4.40;;;8.00;99.90;;;;;;5092002;28;20264;-69
2022/11/06 07:25:39;;;;;;;9.07;4.40;;;8.10;99.90;;;;;;5093496;28;20178;-69
2022/11/06 07:28:07;;;;;;;6.10;4.30;;;8.10;99.90;;;;;;5093574;28;20179;-69
2022/11/06 07:30:34;;;;;;;9.37;4.30;;;8.10;99.90;;;;;;5091999;28;20267;-69
2022/11/06 07:33:02;;;;;;;8.23;4.87;;;8.10;99.90;;;;;;5093443;28;20283;-72
2022/11/06 07:35:28;;;;;;;7.83;4.60;;;8.10;99.90;;;;;;5093119;28;20181;-71
2022/11/06 07:37:54;;;;;;;10.93;4.43;;;8.10;99.90;;;;;;5093262;28;20177;-72
2022/11/06 07:40:20;;;;;;;4.67;4.27;;;8.10;99.90;;;;;;5092085;28;20181;-71
2022/11/06 07:42:45;;;;;;;5.20;4.33;;;8.10;99.90;;;;;;5093221;28;20578;-71
2022/11/06 07:45:11;;;;;;;8.47;4.90;;;8.20;99.90;;;;;;5092960;28;20208;-69
2022/11/06 07:47:37;;;;;;;9.60;4.50;;;8.20;99.90;;;;;;5091678;28;20688;-70
2022/11/06 07:50:03;;;;;;;4.70;4.30;;;8.30;99.90;;;;;;5093241;28;20200;-67
2022/11/06 07:52:29;;;;;;;4.80;4.20;;;8.30;99.90;;;;;;5092965;28;20219;-67
2022/11/06 07:54:55;;;;;;;5.77;4.30;;;8.40;99.90;;;;;;5092964;28;20157;-67
2022/11/06 07:57:21;;;;;;;6.47;4.50;;;8.40;99.90;;;;;;5092864;28;20204;-67
2022/11/06 07:59:46;;;;;;;7.37;4.30;;;8.40;99.90;;;;;;5092963;28;20187;-67
2022/11/06 08:02:12;;;;;;;7.60;4.13;;;8.50;99.90;;;;;;5091573;28;20199;-66
2022/11/06 08:04:38;;;;;;;8.07;4.60;;;8.50;99.90;;;;;;5092948;28;20181;-66
2022/11/06 08:07:04;;;;;;;9.93;4.20;;;8.60;99.90;;;;;;5091580;28;20296;-66
2022/11/06 08:09:30;;;;;;;6.47;4.13;;;8.60;99.90;;;;;;5091886;28;20214;-67
2022/11/06 08:11:56;;;;;;;4.87;4.23;;;8.70;99.90;;;;;;5092698;28;20708;-67
2022/11/06 08:14:21;;;;;;;7.40;4.63;;;8.60;99.90;;;;;;5092832;28;20200;-70
2022/11/06 08:16:47;;;;;;;5.77;4.57;;;8.70;99.90;;;;;;5093051;28;20195;-67
2022/11/06 08:19:13;;;;;;;9.53;7.40;;;8.70;99.90;;;;;;5096260;28;20653;-67
2022/11/06 08:21:39;;;;;;;9.57;5.33;;;8.80;99.90;;;;;;5096611;28;20177;-66
2022/11/06 08:24:05;;;;;;;5.43;4.93;;;8.90;99.90;;;;;;5096148;28;20180;-66
2022/11/06 08:26:31;;;;;;;6.30;4.47;;;8.90;99.90;;;;;;5096533;28;20567;-66
2022/11/06 08:28:57;;;;;;;7.27;4.80;;;8.90;99.90;;;;;;5096053;28;20173;-66
2022/11/06 08:31:23;;;;;;;7.43;4.60;;;9.00;99.90;;;;;;5094984;28;20365;-67
2022/11/06 08:33:49;;;;;;;9.00;5.03;;;9.00;99.90;;;;;;5095010;28;20585;-67
2022/11/06 08:36:15;;;;;;;7.37;4.60;;;9.00;99.90;;;;;;5096226;28;20266;-66
2022/11/06 08:38:41;;;;;;;6.50;4.40;;;9.10;99.90;;;;;;5094580;28;20551;-67
2022/11/06 08:41:09;;;;;;;8.67;4.70;;;9.10;99.90;;;;;;5096421;28;20177;-66
2022/11/06 08:43:36;;;;;;;7.40;4.53;;;9.20;99.90;;;;;;5076585;28;20205;-67
2022/11/06 08:46:03;;;;;;;7.30;4.27;;;9.30;99.90;;;;;;5075442;28;20263;-67
2022/11/06 08:48:28;;;;;;;4.47;4.03;;;9.30;99.90;;;;;;5074265;28;20261;-66
2022/11/06 08:50:54;;;;;;;6.30;4.60;;;9.30;99.90;;;;;;5074126;28;20208;-66
2022/11/06 08:53:20;;;;;;;11.53;4.30;;;9.40;99.90;;;;;;5075346;28;20272;-66
2022/11/06 08:55:46;;;;;;;8.27;4.57;;;9.50;99.90;;;;;;5075417;28;20197;-66
2022/11/06 08:58:13;;;;;;;8.13;4.57;;;9.60;99.90;;;;;;5074162;28;20178;-66
2022/11/06 09:00:38;;;;;;;5.87;4.00;;;9.70;99.90;;;;;;5074083;28;20178;-66
2022/11/06 09:03:08;;;;;;;9.83;4.63;;;9.80;99.90;;;;;;5074120;28;20193;-66
2022/11/06 09:05:34;;;;;;;8.20;4.17;;;9.80;99.90;;;;;;5074253;28;20170;-67
2022/11/06 09:08:00;;;;;;;8.83;4.33;;;9.90;99.90;;;;;;5075026;28;20173;-67
2022/11/06 09:10:27;;;;;;;8.77;3.77;;;10.00;99.90;;;;;;5075191;28;20703;-67
2022/11/06 09:12:53;;;;;;;8.43;4.17;;;10.20;99.90;;;;;;5088365;28;20680;-67
2022/11/06 09:15:19;;;;;;;7.13;4.50;;;10.30;99.90;;;;;;5095860;28;20174;-67
2022/11/06 09:17:46;;;;;;;5.83;4.07;;;10.40;99.90;;;;;;5095043;28;20692;-67
2022/11/06 09:20:13;;;;;;;5.47;4.10;;;10.40;99.90;;;;;;5093931;28;20318;-67
2022/11/06 09:22:39;;;;;;;7.30;4.00;;;10.60;99.90;;;;;;5095070;28;20173;-67
2022/11/06 09:25:05;;;;;;;6.87;4.03;;;10.60;99.90;;;;;;5095602;28;20208;-68
2022/11/06 09:27:31;;;;;;;9.20;4.00;;;10.70;99.90;;;;;;5095125;28;20669;-67
2022/11/06 09:29:57;;;;;;;8.17;3.83;;;10.70;99.90;;;;;;5093880;28;20170;-67
2022/11/06 09:32:23;;;;;;;5.57;4.10;;;10.80;99.90;;;;;;5095649;28;20556;-68
2022/11/06 09:34:50;;;;;;;6.70;3.80;;;10.70;99.90;;;;;;5095113;28;20189;-67
2022/11/06 09:37:15;;;;;;;9.87;4.17;;;10.60;99.90;;;;;;5093557;28;20197;-67
2022/11/06 09:39:41;;;;;;;8.03;4.20;;;10.60;99.90;;;;;;5095467;28;20226;-71
2022/11/06 09:42:27;;;;;;;10.57;6.80;;;10.60;99.90;;;;;;5095281;28;20246;-68
2022/11/06 09:45:12;;;;;;;10.07;5.10;;;10.60;99.90;;;;;;5095276;28;20196;-68
2022/11/06 09:47:43;;;;;;;7.70;4.10;;;10.70;99.90;;;;;;5095066;28;20221;-67
2022/11/06 09:50:22;;;;;;;7.03;3.80;;;10.70;99.90;;;;;;5094781;28;20248;-67
2022/11/06 09:53:06;;;;;;;7.30;3.90;;;10.80;99.90;;;;;;5095017;28;20591;-67
2022/11/06 09:55:43;;;;;;;6.00;3.57;;;10.90;99.90;;;;;;5093235;28;20204;-67
2022/11/06 09:58:24;;;;;;;4.37;3.50;;;10.90;99.90;;;;;;5093470;28;20202;-67
2022/11/06 10:00:53;;;;;;;6.70;3.47;;;11.00;99.90;;;;;;5093342;28;20273;-67
2022/11/06 10:03:30;;;;;;;7.57;4.23;;;11.00;99.90;;;;;;5094636;28;20169;-67
2022/11/06 10:05:56;;;;;;;8.67;4.00;;;11.10;99.90;;;;;;5093038;28;20203;-69
2022/11/06 10:08:26;;;;;;;4.50;3.70;;;11.10;99.90;;;;;;5093212;28;20652;-69
2022/11/06 10:11:12;;;;;;;4.20;3.80;;;11.10;99.90;;;;;;5092966;28;20614;-70
2022/11/06 10:13:50;;;;;;;6.07;4.00;;;11.10;99.90;;;;;;5094224;28;20528;-70
2022/11/06 10:16:42;;;;;;;5.67;3.73;;;11.20;99.90;;;;;;5094124;28;20192;-70
2022/11/06 10:19:23;;;;;;;6.47;3.80;;;11.20;99.90;;;;;;5093342;28;20185;-69
2022/11/06 10:22:10;;;;;;;8.17;4.10;;;11.30;99.90;;;;;;5092862;28;20188;-70
2022/11/06 10:25:03;;;;;;;9.20;3.97;;;11.40;99.90;;;;;;5093988;28;20169;-70
2022/11/06 10:27:32;;;;;;;9.00;3.80;;;11.40;99.90;;;;;;5092729;28;20570;-70
2022/11/06 10:30:13;;;;;;;11.10;4.23;;;11.40;99.90;;;;;;5092645;28;20185;-70
2022/11/06 10:32:48;;;;;;;10.63;7.10;;;11.50;99.90;;;;;;5092640;28;20246;-70
2022/11/06 10:35:32;;;;;;;6.40;4.40;;;11.50;99.90;;;;;;5093942;28;20207;-69
2022/11/06 10:38:31;;;;;;;7.77;3.73;;;11.60;99.90;;;;;;5092385;28;20645;-70
2022/11/06 10:40:57;;;;;;;5.87;3.73;;;11.60;99.90;;;;;;5091831;28;20204;-69
2022/11/06 10:43:23;;;;;;;4.23;3.43;;;11.60;99.90;;;;;;5092473;28;20221;-69
2022/11/06 10:45:54;;;;;;;4.67;3.73;;;11.60;99.90;;;;;;5092295;28;20212;-70
2022/11/06 10:48:26;;;;;;;7.90;3.93;;;11.60;99.90;;;;;;5093796;28;20194;-70
2022/11/06 10:51:19;;;;;;;5.83;3.57;;;11.70;99.90;;;;;;5092363;28;20165;-70
2022/11/06 10:53:51;;;;;;;5.97;4.03;;;11.80;99.90;;;;;;5092245;28;20169;-70
2022/11/06 10:56:53;;;;;;;8.17;3.50;;;11.80;99.90;;;;;;5093397;28;20197;-69
2022/11/06 10:59:19;;;;;;;5.20;3.80;;;12.00;99.90;;;;;;5092351;28;20618;-69
2022/11/06 11:01:45;;;;;;;6.90;3.80;;;12.10;99.90;;;;;;5093454;28;20260;-70
2022/11/06 11:04:11;;;;;;;8.20;4.10;;;12.20;99.90;;;;;;5093817;28;20672;-70
2022/11/06 11:06:40;;;;;;;6.60;4.00;;;12.20;99.90;;;;;;5093713;28;20201;-70
2022/11/06 11:09:28;;;;;;;5.25;3.83;;;12.20;99.90;;;;;;5093356;28;20188;-69
2022/11/06 11:11:54;;;;;;;7.47;3.67;;;12.30;99.90;;;;;;5091988;28;20239;-69
2022/11/06 11:14:25;;;;;;;5.27;3.73;;;12.30;99.90;;;;;;5093394;28;20204;-70
2022/11/06 11:16:51;;;;;;;6.47;3.30;;;12.20;99.90;;;;;;5093518;28;20197;-70
2022/11/06 11:19:38;;;;;;;4.23;3.63;;;12.10;99.90;;;;;;5093424;28;20180;-69
2022/11/06 11:22:19;;;;;;;8.52;3.70;;;12.10;99.90;;;;;;5093390;28;20165;-69
2022/11/06 11:25:01;;;;;;;4.93;3.50;;;12.10;99.90;;;;;;5093197;28;20161;-69
2022/11/06 11:27:29;;;;;;;4.80;3.80;;;12.10;99.90;;;;;;5091911;28;20208;-69
2022/11/06 11:29:56;;;;;;;6.30;3.50;;;12.20;99.90;;;;;;5093375;28;20181;-69
2022/11/06 11:32:23;;;;;;;4.68;3.40;;;12.10;99.90;;;;;;5093653;28;20209;-69
2022/11/06 11:34:52;;;;;;;5.23;3.60;;;12.10;99.90;;;;;;5094027;28;20181;-69
2022/11/06 11:37:26;;;;;;;5.83;4.20;;;11.90;99.90;;;;;;5094479;28;20193;-69
2022/11/06 11:39:52;;;;;;;5.30;3.60;;;11.90;99.90;;;;;;5092327;28;20181;-70
2022/11/06 11:42:29;;;;;;;3.70;3.33;;;11.90;99.90;;;;;;5093107;28;20188;-69
2022/11/06 11:45:24;;;;;;;6.93;4.10;;;11.90;99.90;;;;;;5093083;28;20199;-70
2022/11/06 11:47:50;;;;;;;3.60;3.30;;;11.80;99.90;;;;;;5092654;28;20662;-70
2022/11/06 11:50:16;;;;;;;5.27;4.10;;;11.80;99.90;;;;;;5091795;28;20355;-69
2022/11/06 11:52:48;;;;;;;7.87;3.80;;;11.90;99.90;;;;;;5096533;28;20193;-69
2022/11/06 11:55:20;;;;;;;8.05;3.58;;;11.90;99.90;;;;;;5095718;28;20185;-70
2022/11/06 11:57:48;;;;;;;5.32;3.40;;;12.10;99.90;;;;;;5096819;28;20201;-70
2022/11/06 12:00:21;;;;;;;3.90;3.60;;;12.40;99.90;;;;;;5097063;28;20230;-69
2022/11/06 12:02:50;;;;;;;5.33;3.70;;;12.50;99.90;;;;;;5097074;28;20168;-69
2022/11/06 12:05:26;;;;;;;6.67;3.50;;;12.50;99.90;;;;;;5095533;28;20540;-69
2022/11/06 12:07:55;;;;;;;8.00;3.63;;;12.40;99.90;;;;;;5096903;28;20649;-71
2022/11/06 12:10:38;;;;;;;4.27;3.70;;;12.20;99.90;;;;;;5095322;28;20177;-71
2022/11/06 12:13:12;;;;;;;4.70;3.70;;;12.10;99.90;;;;;;5096593;28;20213;-70
2022/11/06 12:16:03;;;;;;;4.67;3.60;;;12.00;99.90;;;;;;5095203;28;20183;-69
2022/11/06 12:18:46;;;;;;;6.20;3.37;;;12.00;99.90;;;;;;5095182;28;20177;-69
2022/11/06 12:21:18;;;;;;;4.90;3.53;;;12.00;99.90;;;;;;5095107;28;20185;-69
2022/11/06 12:24:09;;;;;;;7.47;3.30;;;11.90;99.90;;;;;;5094889;28;20173;-69
2022/11/06 12:26:56;;;;;;;5.57;3.67;;;11.80;99.90;;;;;;5096545;28;20732;-69
2022/11/06 12:29:33;;;;;;;4.73;3.50;;;11.80;99.90;;;;;;5095056;28;20184;-68
2022/11/06 12:32:41;;;;;;;6.53;3.50;;;11.80;99.90;;;;;;5096415;28;20200;-69
2022/11/06 12:35:14;;;;;;;6.43;3.60;;;11.80;99.90;;;;;;5094166;28;20672;-69
2022/11/06 12:37:47;;;;;;;6.50;3.57;;;11.80;99.90;;;;;;5095520;28;20212;-69
2022/11/06 12:40:30;;;;;;;7.70;3.70;;;11.90;99.90;;;;;;5096026;28;20249;-69
2022/11/06 12:43:18;;;;;;;5.23;3.30;;;11.90;99.90;;;;;;5095897;28;20354;-69
2022/11/06 12:45:52;;;;;;;7.50;3.90;;;11.90;99.90;;;;;;5096114;28;20357;-69
2022/11/06 12:48:28;;;;;;;6.67;3.70;;;11.90;99.90;;;;;;5095915;28;20168;-69
2022/11/06 12:51:15;;;;;;;4.10;3.40;;;11.80;99.90;;;;;;5095889;28;20169;-69
2022/11/06 12:54:06;;;;;;;10.00;3.80;;;11.70;99.90;;;;;;5094634;28;20185;-69
2022/11/06 12:56:50;;;;;;;3.60;3.30;;;11.70;99.90;;;;;;5094488;28;20331;-69
2022/11/06 12:59:32;;;;;;;6.73;3.57;;;11.70;99.90;;;;;;5094751;28;20177;-69
2022/11/06 13:02:35;;;;;;;7.67;3.50;;;11.70;99.90;;;;;;5094551;28;20181;-69
2022/11/06 13:05:20;;;;;;;5.57;3.30;;;11.70;99.90;;;;;;5094528;28;20180;-69
2022/11/06 13:08:00;;;;;;;5.87;4.03;;;11.70;99.90;;;;;;5094334;28;20208;-69
2022/11/06 13:10:42;;;;;;;5.37;3.57;;;11.70;99.90;;;;;;5094690;28;20181;-69
2022/11/06 13:13:44;;;;;;;7.13;3.97;;;11.70;99.90;;;;;;5095693;28;20208;-70
2022/11/06 13:16:17;;;;;;;6.03;3.33;;;11.60;99.90;;;;;;5095737;28;20717;-67
2022/11/06 13:18:53;;;;;;;4.70;3.33;;;11.60;99.90;;;;;;5095605;28;20166;-66
2022/11/06 13:21:24;;;;;;;4.60;2.93;;;11.60;99.90;;;;;;5094320;28;20184;-66
2022/11/06 13:23:52;;;;;;;4.97;3.60;;;11.60;99.90;;;;;;5095395;28;20158;-66
2022/11/06 13:26:36;;;;;;;6.13;3.57;;;11.50;99.90;;;;;;5095382;28;20201;-66